createdAt,value
2022-10-09T00:00:58.230Z,82.43
2022-10-09T00:01:58.260Z,82.09
2022-10-09T00:02:58.198Z,80.46
2022-10-09T00:04:00.912Z,80.60
2022-10-09T00:05:07.866Z,79.68
2022-10-09T00:05:58.166Z,79.68
2022-10-09T00:06:58.154Z,80.49
2022-10-09T00:07:58.140Z,80.69
2022-10-09T00:08:58.878Z,81.31
2022-10-09T00:10:00.046Z,82.27
2022-10-09T00:10:58.098Z,83.50
2022-10-09T00:11:59.763Z,82.84
2022-10-09T00:12:58.117Z,82.37
2022-10-09T00:13:58.116Z,82.27
2022-10-09T00:14:58.052Z,83.70
2022-10-09T00:15:58.085Z,83.60
2022-10-09T00:16:58.164Z,83.66
2022-10-09T00:17:58.041Z,83.46
2022-10-09T00:18:58.026Z,83.15
2022-10-09T00:19:57.995Z,81.93
2022-10-09T00:20:57.988Z,82.43
2022-10-09T00:21:57.967Z,82.43
2022-10-09T00:22:57.966Z,82.54
2022-10-09T00:23:59.597Z,83.97
2022-10-09T00:25:00.609Z,82.95
2022-10-09T00:25:59.750Z,82.89
2022-10-09T00:27:00.675Z,82.89
2022-10-09T00:27:57.923Z,83.50
2022-10-09T00:28:57.960Z,82.78
2022-10-09T00:29:57.893Z,82.27
2022-10-09T00:30:59.522Z,83.29
2022-10-09T00:31:57.895Z,83.70
2022-10-09T00:32:57.895Z,84.89
2022-10-09T00:33:57.844Z,82.54
2022-10-09T00:34:57.858Z,81.10
2022-10-09T00:35:58.093Z,81.21
2022-10-09T00:36:57.852Z,80.90
2022-10-09T00:37:57.822Z,81.31
2022-10-09T00:38:59.564Z,81.62
2022-10-09T00:39:57.821Z,82.64
2022-10-09T00:40:57.796Z,82.75
2022-10-09T00:41:57.798Z,81.76
2022-10-09T00:42:57.778Z,83.09
2022-10-09T00:43:57.783Z,83.29
2022-10-09T00:44:57.988Z,84.11
2022-10-09T00:45:57.838Z,85.34
2022-10-09T00:46:57.732Z,84.52
2022-10-09T00:47:57.694Z,84.63
2022-10-09T00:48:57.729Z,83.81
2022-10-09T00:49:59.445Z,83.50
2022-10-09T00:50:57.712Z,84.31
2022-10-09T00:51:59.260Z,84.11
2022-10-09T00:52:57.671Z,84.52
2022-10-09T00:53:57.720Z,83.84
2022-10-09T00:54:59.306Z,83.64
2022-10-09T00:55:57.609Z,83.64
2022-10-09T00:56:57.627Z,83.74
2022-10-09T00:57:57.626Z,84.77
2022-10-09T00:58:58.236Z,82.51
2022-10-09T00:59:57.606Z,83.44
2022-10-09T01:00:57.618Z,83.33
2022-10-09T01:01:59.394Z,84.36
2022-10-09T01:02:57.539Z,86.30
2022-10-09T01:04:00.318Z,83.64
2022-10-09T01:04:57.593Z,82.10
2022-10-09T01:05:57.512Z,82.51
2022-10-09T01:06:57.843Z,85.17
2022-10-09T01:07:59.125Z,84.46
2022-10-09T01:08:57.515Z,83.64
2022-10-09T01:09:57.511Z,85.99
2022-10-09T01:10:57.482Z,85.17
2022-10-09T01:11:58.326Z,83.13
2022-10-09T01:12:59.180Z,84.56
2022-10-09T01:13:57.449Z,85.14
2022-10-09T01:14:57.486Z,83.29
2022-10-09T01:15:58.229Z,83.19
2022-10-09T01:16:57.396Z,83.95
2022-10-09T01:18:02.220Z,83.33
2022-10-09T01:18:57.390Z,84.25
2022-10-09T01:19:57.442Z,83.23
2022-10-09T01:20:59.149Z,83.88
2022-10-09T01:21:57.349Z,84.29
2022-10-09T01:22:57.367Z,85.72
2022-10-09T01:23:57.339Z,85.11
2022-10-09T01:24:57.841Z,84.29
2022-10-09T01:25:57.402Z,85.01
2022-10-09T01:26:57.311Z,85.83
2022-10-09T01:28:01.071Z,86.04
2022-10-09T01:28:59.119Z,85.25
2022-10-09T01:29:57.276Z,84.80
2022-10-09T01:30:58.070Z,87.57
2022-10-09T01:31:57.304Z,86.34
2022-10-09T01:32:59.094Z,87.47
2022-10-09T01:33:58.158Z,85.28
2022-10-09T01:35:00.104Z,84.15
2022-10-09T01:35:59.850Z,83.88
2022-10-09T01:36:57.240Z,83.78
2022-10-09T01:37:58.800Z,84.50
2022-10-09T01:38:57.205Z,84.70
2022-10-09T01:39:57.145Z,84.84
2022-10-09T01:40:57.922Z,84.53
2022-10-09T01:41:58.898Z,84.84
2022-10-09T01:42:57.166Z,86.28
2022-10-09T01:43:57.117Z,86.63
2022-10-09T01:44:58.914Z,87.20
2022-10-09T01:45:58.764Z,86.28
2022-10-09T01:46:57.131Z,84.53
2022-10-09T01:47:57.088Z,85.15
2022-10-09T01:48:58.810Z,84.64
2022-10-09T01:49:59.821Z,86.28
2022-10-09T01:50:57.153Z,86.18
2022-10-09T01:51:58.855Z,86.79
2022-10-09T01:52:57.053Z,85.63
2022-10-09T01:53:57.832Z,83.98
2022-10-09T01:54:57.005Z,84.09
2022-10-09T01:55:57.337Z,82.65
2022-10-09T01:56:57.001Z,83.06
2022-10-09T01:57:57.012Z,84.09
2022-10-09T01:58:57.251Z,85.15
2022-10-09T01:59:57.014Z,84.64
2022-10-09T02:00:57.654Z,86.79
2022-10-09T02:01:57.807Z,85.63
2022-10-09T02:02:56.994Z,85.01
2022-10-09T02:03:56.898Z,84.74
2022-10-09T02:04:56.949Z,84.23
2022-10-09T02:05:56.896Z,83.61
2022-10-09T02:06:57.948Z,83.31
2022-10-09T02:07:56.904Z,83.61
2022-10-09T02:08:56.878Z,86.18
2022-10-09T02:10:02.967Z,86.38
2022-10-09T02:10:56.923Z,85.87
2022-10-09T02:12:00.672Z,85.77
2022-10-09T02:12:58.601Z,83.20
2022-10-09T02:13:56.843Z,82.90
2022-10-09T02:14:58.472Z,83.41
2022-10-09T02:15:56.880Z,84.95
2022-10-09T02:16:56.791Z,85.15
2022-10-09T02:17:57.535Z,84.88
2022-10-09T02:18:56.851Z,85.80
2022-10-09T02:19:56.734Z,85.50
2022-10-09T02:21:00.229Z,84.68
2022-10-09T02:21:56.741Z,85.60
2022-10-09T02:22:57.500Z,86.11
2022-10-09T02:23:56.690Z,85.60
2022-10-09T02:24:57.529Z,85.30
2022-10-09T02:25:58.332Z,86.57
2022-10-09T02:26:56.686Z,86.93
2022-10-09T02:27:56.670Z,87.04
2022-10-09T02:28:58.356Z,87.45
2022-10-09T02:29:57.399Z,85.71
2022-10-09T02:30:56.723Z,86.32
2022-10-09T02:31:56.636Z,86.42
2022-10-09T02:32:56.614Z,86.52
2022-10-09T02:33:58.326Z,86.22
2022-10-09T02:34:56.621Z,86.11
2022-10-09T02:35:56.600Z,87.55
2022-10-09T02:36:56.645Z,86.52
2022-10-09T02:37:56.555Z,86.01
2022-10-09T02:38:58.363Z,85.85
2022-10-09T02:39:57.361Z,86.25
2022-10-09T02:40:56.543Z,84.82
2022-10-09T02:41:57.251Z,86.05
2022-10-09T02:42:56.528Z,86.66
2022-10-09T02:43:56.494Z,86.36
2022-10-09T02:45:01.202Z,85.64
2022-10-09T02:46:00.021Z,86.36
2022-10-09T02:46:58.131Z,85.54
2022-10-09T02:47:56.473Z,86.36
2022-10-09T02:48:56.454Z,86.05
2022-10-09T02:49:56.477Z,86.05
2022-10-09T02:50:58.049Z,86.46
2022-10-09T02:51:56.396Z,86.57
2022-10-09T02:52:56.414Z,86.98
2022-10-09T02:53:58.814Z,87.70
2022-10-09T02:54:57.192Z,86.77
2022-10-09T02:55:56.448Z,87.59
2022-10-09T02:56:56.351Z,87.28
2022-10-09T02:57:59.089Z,85.13
2022-10-09T02:58:56.357Z,84.72
2022-10-09T03:00:04.203Z,85.44
2022-10-09T03:00:56.345Z,85.95
2022-10-09T03:01:56.460Z,86.77
2022-10-09T03:02:56.330Z,86.98
2022-10-09T03:03:56.360Z,86.25
2022-10-09T03:04:56.299Z,86.36
2022-10-09T03:05:56.312Z,85.44
2022-10-09T03:06:56.933Z,84.52
2022-10-09T03:07:56.267Z,84.41
2022-10-09T03:09:01.019Z,84.86
2022-10-09T03:09:58.027Z,85.99
2022-10-09T03:10:56.842Z,86.81
2022-10-09T03:12:10.980Z,85.47
2022-10-09T03:12:56.199Z,85.78
2022-10-09T03:13:56.215Z,85.78
2022-10-09T03:14:56.218Z,86.40
2022-10-09T03:15:56.179Z,87.22
2022-10-09T03:16:56.165Z,85.78
2022-10-09T03:17:56.901Z,84.76
2022-10-09T03:18:57.012Z,84.66
2022-10-09T03:19:56.125Z,85.00
2022-10-09T03:20:56.142Z,86.85
2022-10-09T03:21:56.141Z,86.33
2022-10-09T03:22:56.105Z,86.65
2022-10-09T03:23:56.076Z,86.65
2022-10-09T03:25:00.838Z,86.95
2022-10-09T03:25:56.086Z,86.03
2022-10-09T03:26:58.731Z,88.14
2022-10-09T03:27:56.050Z,86.50
2022-10-09T03:28:56.055Z,86.19
2022-10-09T03:29:57.829Z,87.73
2022-10-09T03:30:56.999Z,86.71
2022-10-09T03:31:56.746Z,85.58
2022-10-09T03:32:57.598Z,85.27
2022-10-09T03:33:57.598Z,85.27
2022-10-09T03:34:56.063Z,85.47
2022-10-09T03:35:55.973Z,84.45
2022-10-09T03:36:55.968Z,84.08
2022-10-09T03:37:56.155Z,85.21
2022-10-09T03:38:55.941Z,86.03
2022-10-09T03:39:58.668Z,86.03
2022-10-09T03:40:55.925Z,87.16
2022-10-09T03:41:57.879Z,88.39
2022-10-09T03:42:58.729Z,86.95
2022-10-09T03:43:57.704Z,86.54
2022-10-09T03:44:55.929Z,87.37
2022-10-09T03:45:59.244Z,86.03
2022-10-09T03:46:55.943Z,84.55
2022-10-09T03:47:56.603Z,85.17
2022-10-09T03:48:55.881Z,85.47
2022-10-09T03:49:55.825Z,84.96
2022-10-09T03:50:57.498Z,83.98
2022-10-09T03:51:57.561Z,84.18
2022-10-09T03:52:55.784Z,85.00
2022-10-09T03:53:57.588Z,86.03
2022-10-09T03:55:00.466Z,86.65
2022-10-09T03:55:55.755Z,87.16
2022-10-09T03:56:55.799Z,85.31
2022-10-09T03:57:58.948Z,86.13
2022-10-09T03:58:55.730Z,84.49
2022-10-09T03:59:56.428Z,84.28
2022-10-09T04:00:55.797Z,84.49
2022-10-09T04:01:57.470Z,85.52
2022-10-09T04:02:59.247Z,84.18
2022-10-09T04:03:55.689Z,84.49
2022-10-09T04:04:55.745Z,85.21
2022-10-09T04:05:55.695Z,86.54
2022-10-09T04:06:57.422Z,85.11
2022-10-09T04:07:56.302Z,84.42
2022-10-09T04:08:55.671Z,84.42
2022-10-09T04:09:55.673Z,85.46
2022-10-09T04:10:55.608Z,87.10
2022-10-09T04:11:56.398Z,86.58
2022-10-09T04:12:55.625Z,86.48
2022-10-09T04:13:55.573Z,85.04
2022-10-09T04:14:55.605Z,85.25
2022-10-09T04:15:55.869Z,86.79
2022-10-09T04:16:55.555Z,86.07
2022-10-09T04:17:55.595Z,85.35
2022-10-09T04:18:55.606Z,85.35
2022-10-09T04:19:55.565Z,85.97
2022-10-09T04:20:57.144Z,85.86
2022-10-09T04:21:55.564Z,85.55
2022-10-09T04:22:55.507Z,85.11
2022-10-09T04:23:55.475Z,84.32
2022-10-09T04:24:56.366Z,84.22
2022-10-09T05:18:08.445Z,84.12
2022-10-09T05:18:13.546Z,87.20
2022-10-09T05:19:13.521Z,87.61
2022-10-09T05:20:13.429Z,85.93
2022-10-09T05:21:13.422Z,86.24
2022-10-09T05:22:15.050Z,84.69
2022-10-09T05:23:13.391Z,85.62
2022-10-09T05:24:13.406Z,86.75
2022-10-09T05:25:13.402Z,86.24
2022-10-09T05:26:15.090Z,85.82
2022-10-09T05:27:13.364Z,86.13
2022-10-09T05:28:13.407Z,86.79
2022-10-09T05:29:13.352Z,85.66
2022-10-09T05:30:13.353Z,86.58
2022-10-09T05:31:15.053Z,85.35
2022-10-09T05:32:13.428Z,85.86
2022-10-09T05:33:13.294Z,85.86
2022-10-09T05:34:28.102Z,86.68
2022-10-09T05:35:13.310Z,84.22
2022-10-09T05:36:13.311Z,83.70
2022-10-09T05:37:13.314Z,83.61
2022-10-09T05:38:13.245Z,83.81
2022-10-09T07:45:09.425Z,65.89
2022-10-09T07:46:33.263Z,66.13
2022-10-09T07:47:10.323Z,66.64
2022-10-09T07:48:10.368Z,67.38
2022-10-09T07:49:10.218Z,68.23
2022-10-09T07:50:10.197Z,68.54
2022-10-09T07:51:10.173Z,70.68
2022-10-09T07:52:10.235Z,70.72
2022-10-09T07:53:22.658Z,69.90
2022-10-09T07:54:14.224Z,71.94
2022-10-09T07:55:10.140Z,71.63
2022-10-09T07:56:10.091Z,71.53
2022-10-09T07:57:10.134Z,72.55
2022-10-09T07:58:10.087Z,72.86
2022-10-09T07:59:10.074Z,70.92
2022-10-09T08:00:10.073Z,71.12
2022-10-09T08:01:10.119Z,72.24
2022-10-09T08:02:10.109Z,71.02
2022-10-09T08:03:10.104Z,71.63
2022-10-09T08:04:11.712Z,70.40
2022-10-09T08:05:10.042Z,70.92
2022-10-09T08:06:09.982Z,71.63
2022-10-09T08:07:10.009Z,70.81
2022-10-09T08:08:10.036Z,72.14
2022-10-09T08:09:10.000Z,72.52
2022-10-09T08:10:11.789Z,71.80
2022-10-09T08:11:09.934Z,71.70
2022-10-09T08:12:09.968Z,71.29
2022-10-09T08:13:09.917Z,70.89
2022-10-09T08:14:09.903Z,70.68
2022-10-09T08:15:10.156Z,69.35
2022-10-09T08:16:09.953Z,69.66
2022-10-09T08:17:11.595Z,70.00
2022-10-09T08:18:09.874Z,70.40
2022-10-09T08:19:09.873Z,70.48
2022-10-09T08:20:09.912Z,71.09
2022-10-09T08:21:09.840Z,70.78
2022-10-09T08:22:09.838Z,70.48
2022-10-09T08:23:09.866Z,70.17
2022-10-09T08:24:09.867Z,70.31
2022-10-09T08:25:09.868Z,70.72
2022-10-09T08:26:11.604Z,70.72
2022-10-09T08:27:09.873Z,70.92
2022-10-09T08:28:11.671Z,71.02
2022-10-09T08:29:09.783Z,71.12
2022-10-09T08:30:11.433Z,70.20
2022-10-09T08:31:09.817Z,70.72
2022-10-09T08:32:09.746Z,70.81
2022-10-09T08:33:09.722Z,70.61
2022-10-09T08:34:09.760Z,71.02
2022-10-09T08:35:09.765Z,70.92
2022-10-09T08:36:09.698Z,70.72
2022-10-09T08:37:09.680Z,71.02
2022-10-09T08:38:17.817Z,70.81
2022-10-09T08:39:09.683Z,71.02
2022-10-09T08:40:11.433Z,71.22
2022-10-09T08:41:09.674Z,71.22
2022-10-09T08:42:09.629Z,71.12
2022-10-09T08:43:09.634Z,70.98
2022-10-09T08:44:09.675Z,70.68
2022-10-09T08:45:09.641Z,70.78
2022-10-09T08:46:09.659Z,70.78
2022-10-09T08:47:14.192Z,70.04
2022-10-09T08:48:09.561Z,69.93
2022-10-09T08:49:09.566Z,69.73
2022-10-09T08:50:09.571Z,70.24
2022-10-09T08:51:09.544Z,70.14
2022-10-09T08:52:09.636Z,70.04
2022-10-09T08:53:10.363Z,69.80
2022-10-09T08:54:09.501Z,69.59
2022-10-09T08:55:09.536Z,69.29
2022-10-09T08:56:11.312Z,69.09
2022-10-09T08:57:09.464Z,69.76
2022-10-09T08:58:09.514Z,69.26
2022-10-09T08:59:09.502Z,68.85
2022-10-09T09:00:10.129Z,68.65
2022-10-09T09:01:09.435Z,68.44
2022-10-09T09:02:09.496Z,68.75
2022-10-09T09:03:14.181Z,68.85
2022-10-09T09:04:09.415Z,68.34
2022-10-09T09:05:09.419Z,68.54
2022-10-09T09:06:09.372Z,68.54
2022-10-09T09:07:12.058Z,69.06
2022-10-09T09:08:09.400Z,69.15
2022-10-09T09:09:11.101Z,69.26
2022-10-09T09:10:09.352Z,68.85
2022-10-09T09:11:09.358Z,69.43
2022-10-09T09:12:09.395Z,69.02
2022-10-09T09:13:14.182Z,68.71
2022-10-09T09:14:09.394Z,67.66
2022-10-09T09:15:09.333Z,67.90
2022-10-09T09:16:09.331Z,67.46
2022-10-09T09:17:09.296Z,67.19
2022-10-09T09:18:09.275Z,67.60
2022-10-09T09:19:10.003Z,67.80
2022-10-09T09:20:10.098Z,68.10
2022-10-09T09:21:09.255Z,68.21
2022-10-09T09:22:09.225Z,68.01
2022-10-09T09:23:09.223Z,67.87
2022-10-09T09:24:10.101Z,67.36
2022-10-09T09:25:09.209Z,67.26
2022-10-09T09:26:11.073Z,67.36
2022-10-09T09:27:09.177Z,67.57
2022-10-09T09:28:12.392Z,67.36
2022-10-09T09:29:10.066Z,67.16
2022-10-09T09:30:09.168Z,67.16
2022-10-09T09:31:09.203Z,67.36
2022-10-09T09:32:10.453Z,67.33
2022-10-09T09:33:11.942Z,67.43
2022-10-09T09:34:09.089Z,67.02
2022-10-09T09:35:09.095Z,67.13
2022-10-09T09:36:09.082Z,66.92
2022-10-09T09:37:10.798Z,66.49
2022-10-09T09:38:10.906Z,66.49
2022-10-09T09:40:35.458Z,66.08
2022-10-09T09:41:09.082Z,65.97
2022-10-09T09:42:09.015Z,66.08
2022-10-09T09:43:08.995Z,65.97
2022-10-09T09:44:09.005Z,65.77
2022-10-09T09:45:08.983Z,66.08
2022-10-09T09:46:09.293Z,65.88
2022-10-09T09:47:08.972Z,65.97
2022-10-09T09:48:08.970Z,65.77
2022-10-09T09:49:09.597Z,65.57
2022-10-09T09:50:23.335Z,65.47
2022-10-09T09:51:27.416Z,65.77
2022-10-09T09:52:08.946Z,65.88
2022-10-09T09:53:08.942Z,65.97
2022-10-09T09:54:08.896Z,66.69
2022-10-09T09:55:08.895Z,66.58
2022-10-09T09:56:08.890Z,66.08
2022-10-09T09:57:13.219Z,66.18
2022-10-09T09:58:08.883Z,66.05
2022-10-09T09:59:08.852Z,66.05
2022-10-09T10:00:08.877Z,65.03
2022-10-09T10:01:12.850Z,65.23
2022-10-09T10:02:08.988Z,65.00
2022-10-09T10:03:08.811Z,64.79
2022-10-09T10:04:08.815Z,63.88
2022-10-09T10:05:08.791Z,64.15
2022-10-09T10:06:08.842Z,63.75
2022-10-09T10:07:09.571Z,63.65
2022-10-09T10:08:08.740Z,63.95
2022-10-09T10:09:08.720Z,63.75
2022-10-09T10:10:08.772Z,63.95
2022-10-09T10:11:08.726Z,64.15
2022-10-09T10:12:08.743Z,64.36
2022-10-09T10:13:08.736Z,63.45
2022-10-09T10:14:08.748Z,63.14
2022-10-09T10:15:10.469Z,63.55
2022-10-09T10:16:08.842Z,63.55
2022-10-09T10:17:08.639Z,63.32
2022-10-09T10:18:08.665Z,63.42
2022-10-09T10:19:08.641Z,63.21
2022-10-09T10:20:08.670Z,62.51
2022-10-09T10:21:08.649Z,62.20
2022-10-09T10:22:08.659Z,62.30
2022-10-09T10:23:09.422Z,62.40
2022-10-09T10:24:08.592Z,62.27
2022-10-09T10:25:11.460Z,61.97
2022-10-09T10:26:08.667Z,61.56
2022-10-09T10:27:08.570Z,61.83
2022-10-09T10:28:30.413Z,61.74
2022-10-09T10:29:08.571Z,60.72
2022-10-09T10:30:08.568Z,61.02
2022-10-09T10:31:08.586Z,60.31
2022-10-09T10:32:08.516Z,60.82
2022-10-09T10:33:08.538Z,60.93
2022-10-09T10:34:08.518Z,60.42
2022-10-09T10:35:08.513Z,60.01
2022-10-09T10:36:08.495Z,59.00
2022-10-09T10:37:08.458Z,59.10
2022-10-09T10:38:10.143Z,59.61
2022-10-09T10:39:08.452Z,59.48
2022-10-09T10:40:08.452Z,59.78
2022-10-09T10:41:08.467Z,59.58
2022-10-09T10:42:08.458Z,59.07
2022-10-09T10:43:08.437Z,59.68
2022-10-09T10:44:08.367Z,59.68
2022-10-09T10:45:08.383Z,59.48
2022-10-09T10:46:08.377Z,59.17
2022-10-09T10:47:08.357Z,58.76
2022-10-09T10:48:08.392Z,58.87
2022-10-09T10:49:08.382Z,58.36
2022-10-09T10:50:08.336Z,58.87
2022-10-09T10:51:08.319Z,58.74
2022-10-09T10:52:08.343Z,58.13
2022-10-09T10:53:09.115Z,57.96
2022-10-09T10:54:08.281Z,58.54
2022-10-09T10:55:08.283Z,58.34
2022-10-09T10:56:10.028Z,58.44
2022-10-09T10:57:08.310Z,57.93
2022-10-09T10:58:09.195Z,57.42
2022-10-09T10:59:08.223Z,56.82
2022-10-09T11:00:08.216Z,56.92
2022-10-09T11:01:08.223Z,56.79
2022-10-09T11:02:08.204Z,55.57
2022-10-09T11:03:08.308Z,55.77
2022-10-09T11:04:08.180Z,55.98
2022-10-09T11:05:08.180Z,55.80
2022-10-09T11:06:08.178Z,56.21
2022-10-09T11:07:08.988Z,56.31
2022-10-09T11:08:08.129Z,55.90
2022-10-09T11:09:08.917Z,56.48
2022-10-09T11:10:08.125Z,56.89
2022-10-09T11:11:08.076Z,55.77
2022-10-09T11:12:15.568Z,55.98
2022-10-09T11:13:08.791Z,55.27
2022-10-09T11:14:08.072Z,55.57
2022-10-09T11:15:08.090Z,55.17
2022-10-09T11:16:08.072Z,55.15
2022-10-09T11:17:08.026Z,55.04
2022-10-09T11:18:08.274Z,55.44
2022-10-09T11:19:08.037Z,55.55
2022-10-09T11:20:07.997Z,55.55
2022-10-09T11:21:08.056Z,55.35
2022-10-09T11:22:11.353Z,55.44
2022-10-09T11:23:08.009Z,55.44
2022-10-09T11:24:07.991Z,55.55
2022-10-09T11:25:09.303Z,54.84
2022-10-09T11:26:08.030Z,54.94
2022-10-09T11:27:08.859Z,55.04
2022-10-09T11:28:07.960Z,54.74
2022-10-09T11:29:07.939Z,55.24
2022-10-09T11:30:07.943Z,55.32
2022-10-09T11:31:08.037Z,55.32
2022-10-09T11:32:09.596Z,55.42
2022-10-09T11:33:07.873Z,55.02
2022-10-09T11:34:07.853Z,54.41
2022-10-09T11:35:07.876Z,54.49
2022-10-09T11:36:07.891Z,53.88
2022-10-09T11:37:07.901Z,52.39
2022-10-09T11:38:10.018Z,52.89
2022-10-09T11:39:07.833Z,53.30
2022-10-09T11:40:07.795Z,53.09
2022-10-09T11:41:07.861Z,52.99
2022-10-09T11:42:07.865Z,52.89
2022-10-09T11:43:07.753Z,52.19
2022-10-09T11:44:07.778Z,52.39
2022-10-09T11:45:07.736Z,51.68
2022-10-09T11:46:07.851Z,52.19
2022-10-09T11:47:09.811Z,51.37
2022-10-09T11:48:07.774Z,51.37
2022-10-09T11:49:08.720Z,50.54
2022-10-09T11:50:07.698Z,50.84
2022-10-09T11:51:07.664Z,51.25
2022-10-09T11:52:07.683Z,50.74
2022-10-09T11:53:07.670Z,50.84
2022-10-09T11:54:07.659Z,48.85
2022-10-09T11:55:07.667Z,49.25
2022-10-09T11:56:07.627Z,49.73
2022-10-09T11:57:12.940Z,49.33
2022-10-09T11:58:07.612Z,49.22
2022-10-09T11:59:07.610Z,48.72
2022-10-09T12:00:07.588Z,48.52
2022-10-09T12:01:07.640Z,47.91
2022-10-09T12:02:07.661Z,47.41
2022-10-09T12:03:07.578Z,47.81
2022-10-09T12:04:07.595Z,47.31
2022-10-09T12:05:08.366Z,46.80
2022-10-09T12:06:07.516Z,46.50
2022-10-09T12:07:07.570Z,46.60
2022-10-09T12:08:07.528Z,46.30
2022-10-09T12:09:07.509Z,46.50
2022-10-09T12:10:07.472Z,46.60
2022-10-09T12:11:07.495Z,46.30
2022-10-09T12:12:07.502Z,46.30
2022-10-09T12:13:07.464Z,46.50
2022-10-09T12:14:07.584Z,46.91
2022-10-09T12:15:08.275Z,46.40
2022-10-09T12:16:07.479Z,46.20
2022-10-09T12:17:07.644Z,46.60
2022-10-09T12:18:07.424Z,46.40
2022-10-09T12:19:07.375Z,46.50
2022-10-09T12:20:07.417Z,46.40
2022-10-09T12:21:07.445Z,46.70
2022-10-09T12:22:07.420Z,46.60
2022-10-09T12:23:25.603Z,47.11
2022-10-09T12:24:07.334Z,46.80
2022-10-09T12:25:07.373Z,45.89
2022-10-09T12:26:07.371Z,46.30
2022-10-09T12:27:07.391Z,46.50
2022-10-09T12:28:07.395Z,46.37
2022-10-09T12:29:07.353Z,46.48
2022-10-09T12:30:08.151Z,46.58
2022-10-09T12:31:07.295Z,46.68
2022-10-09T12:32:08.038Z,46.17
2022-10-09T12:33:07.287Z,45.67
2022-10-09T12:34:07.299Z,45.97
2022-10-09T12:35:07.465Z,45.37
2022-10-09T12:36:08.125Z,46.17
2022-10-09T12:37:07.495Z,46.37
2022-10-09T12:38:07.252Z,46.37
2022-10-09T12:39:07.181Z,46.48
2022-10-09T12:40:07.216Z,46.28
2022-10-09T12:41:07.172Z,46.28
2022-10-09T12:42:07.314Z,46.25
2022-10-09T12:43:07.143Z,45.34
2022-10-09T12:44:07.147Z,45.54
2022-10-09T12:45:07.187Z,45.65
2022-10-09T12:46:07.217Z,45.97
2022-10-09T12:47:07.128Z,45.65
2022-10-09T12:48:07.155Z,45.77
2022-10-09T12:49:07.125Z,45.77
2022-10-09T12:50:07.121Z,46.05
2022-10-09T12:51:07.099Z,46.15
2022-10-09T12:52:08.763Z,44.94
2022-10-09T12:53:07.056Z,45.14
2022-10-09T12:54:07.053Z,44.23
2022-10-09T12:55:07.075Z,44.34
2022-10-09T12:56:07.054Z,44.54
2022-10-09T12:57:10.193Z,44.54
2022-10-09T12:58:07.015Z,44.23
2022-10-09T12:59:07.122Z,44.74
2022-10-09T13:00:06.987Z,44.34
2022-10-09T13:01:08.656Z,44.43
2022-10-09T13:02:07.357Z,44.23
2022-10-09T13:03:07.059Z,44.34
2022-10-09T13:04:06.967Z,44.64
2022-10-09T13:05:06.978Z,44.34
2022-10-09T13:06:06.948Z,44.54
2022-10-09T13:07:06.936Z,44.84
2022-10-09T13:08:06.993Z,44.64
2022-10-09T13:09:06.968Z,44.94
2022-10-09T13:10:06.951Z,45.04
2022-10-09T13:11:08.619Z,44.42
2022-10-09T13:12:06.875Z,44.03
2022-10-09T13:13:06.919Z,44.54
2022-10-09T13:14:07.241Z,44.23
2022-10-09T13:15:06.837Z,44.34
2022-10-09T13:16:10.771Z,44.94
2022-10-09T13:17:06.867Z,44.34
2022-10-09T13:18:06.868Z,44.43
2022-10-09T13:19:06.805Z,44.43
2022-10-09T13:20:06.798Z,44.64
2022-10-09T13:21:06.771Z,44.43
2022-10-09T13:22:06.825Z,44.13
2022-10-09T13:23:06.990Z,43.80
2022-10-09T13:24:08.397Z,44.31
2022-10-09T13:25:07.521Z,44.11
2022-10-09T13:26:06.758Z,43.52
2022-10-09T13:27:06.826Z,44.01
2022-10-09T13:28:07.206Z,44.62
2022-10-09T13:29:06.703Z,44.31
2022-10-09T13:30:06.679Z,44.31
2022-10-09T13:31:06.777Z,43.60
2022-10-09T13:32:06.656Z,43.51
2022-10-09T13:33:06.951Z,43.71
2022-10-09T13:34:09.267Z,44.11
2022-10-09T13:35:06.660Z,44.51
2022-10-09T13:36:06.636Z,43.71
2022-10-09T13:37:06.630Z,44.01
2022-10-09T13:38:07.394Z,43.60
2022-10-09T13:39:06.669Z,43.20
2022-10-09T13:40:07.326Z,43.20
2022-10-09T13:41:06.648Z,43.20
2022-10-09T13:42:06.556Z,43.71
2022-10-09T13:43:06.596Z,43.43
2022-10-09T13:44:08.433Z,43.52
2022-10-09T13:45:06.547Z,44.03
2022-10-09T13:46:06.659Z,43.93
2022-10-09T13:47:06.551Z,43.93
2022-10-09T13:48:06.506Z,43.43
2022-10-09T13:49:06.524Z,43.80
2022-10-09T13:50:06.495Z,43.60
2022-10-09T13:51:06.487Z,43.80
2022-10-09T13:52:06.479Z,44.03
2022-10-09T13:53:06.483Z,44.21
2022-10-09T13:54:06.459Z,43.80
2022-10-09T13:55:06.413Z,43.71
2022-10-09T13:56:06.463Z,43.71
2022-10-09T13:57:06.429Z,43.40
2022-10-09T13:58:06.414Z,43.40
2022-10-09T13:59:06.442Z,44.01
2022-10-09T14:00:06.379Z,43.71
2022-10-09T14:01:06.435Z,43.80
2022-10-09T14:02:06.406Z,43.89
2022-10-09T14:03:06.376Z,43.71
2022-10-09T14:04:06.321Z,43.69
2022-10-09T14:05:06.396Z,43.59
2022-10-09T14:06:08.019Z,43.38
2022-10-09T14:07:06.335Z,43.38
2022-10-09T14:08:06.954Z,43.59
2022-10-09T14:09:06.323Z,43.59
2022-10-09T14:10:06.292Z,43.59
2022-10-09T14:11:06.266Z,43.48
2022-10-09T14:12:09.511Z,43.48
2022-10-09T14:13:06.234Z,43.08
2022-10-09T14:14:07.984Z,43.08
2022-10-09T14:15:06.277Z,42.98
2022-10-09T14:16:07.839Z,43.08
2022-10-09T14:17:06.277Z,43.08
2022-10-09T14:18:06.901Z,43.48
2022-10-09T14:19:06.326Z,43.69
2022-10-09T14:20:08.015Z,44.70
2022-10-09T14:21:06.178Z,43.89
2022-10-09T14:22:06.190Z,43.59
2022-10-09T14:23:06.192Z,43.28
2022-10-09T14:24:06.216Z,43.08
2022-10-09T14:25:06.420Z,43.38
2022-10-09T14:26:06.210Z,43.59
2022-10-09T14:27:06.113Z,43.79
2022-10-09T14:28:06.892Z,44.39
2022-10-09T14:29:06.090Z,44.70
2022-10-09T14:30:06.098Z,44.29
2022-10-09T14:31:06.101Z,44.09
2022-10-09T14:32:08.617Z,43.59
2022-10-09T14:33:06.082Z,43.79
2022-10-09T14:34:07.851Z,43.69
2022-10-09T14:35:06.077Z,43.59
2022-10-09T14:36:06.071Z,43.79
2022-10-09T14:37:18.496Z,43.80
2022-10-09T14:38:15.520Z,43.91
2022-10-09T14:39:05.987Z,44.21
2022-10-09T14:40:06.037Z,43.40
2022-10-09T14:41:06.008Z,44.11
2022-10-09T14:42:06.009Z,44.31
2022-10-09T14:43:05.956Z,44.21
2022-10-09T14:44:05.966Z,44.21
2022-10-09T14:45:05.942Z,44.21
2022-10-09T14:46:05.929Z,44.01
2022-10-09T14:47:05.943Z,44.01
2022-10-09T14:48:05.958Z,44.39
2022-10-09T14:49:05.895Z,44.79
2022-10-09T14:50:05.963Z,43.79
2022-10-09T14:51:05.904Z,43.99
2022-10-09T14:52:05.942Z,44.09
2022-10-09T14:53:05.878Z,43.99
2022-10-09T14:54:05.888Z,44.39
2022-10-09T14:55:07.526Z,44.59
2022-10-09T14:56:05.824Z,44.62
2022-10-09T14:57:07.709Z,44.59
2022-10-09T14:58:07.653Z,44.42
2022-10-09T14:59:08.652Z,44.49
2022-10-09T15:00:06.682Z,44.39
2022-10-09T15:01:07.577Z,44.59
2022-10-09T15:02:06.910Z,44.62
2022-10-09T15:03:05.751Z,44.92
2022-10-09T15:04:05.816Z,44.92
2022-10-09T15:05:07.010Z,44.82
2022-10-09T15:06:05.764Z,45.02
2022-10-09T15:07:07.365Z,44.92
2022-10-09T15:08:05.772Z,44.92
2022-10-09T15:09:06.196Z,44.92
2022-10-09T15:10:05.661Z,45.12
2022-10-09T15:11:16.089Z,45.62
2022-10-09T15:12:05.689Z,45.54
2022-10-09T15:13:05.645Z,45.73
2022-10-09T15:14:05.627Z,46.05
2022-10-09T15:15:05.618Z,46.05
2022-10-09T15:16:05.624Z,46.03
2022-10-09T15:17:05.632Z,46.03
2022-10-09T15:18:05.651Z,46.23
2022-10-09T15:19:05.643Z,46.53
2022-10-09T15:20:05.570Z,46.73
2022-10-09T15:21:05.589Z,46.33
2022-10-09T15:22:05.560Z,46.64
2022-10-09T15:23:05.543Z,46.73
2022-10-09T15:24:05.543Z,47.06
2022-10-09T15:25:05.561Z,47.24
2022-10-09T15:26:07.037Z,47.56
2022-10-09T15:27:05.542Z,47.87
2022-10-09T15:28:05.585Z,47.77
2022-10-09T15:29:05.499Z,47.97
2022-10-09T15:30:05.466Z,47.97
2022-10-09T15:31:06.189Z,48.07
2022-10-09T15:32:05.467Z,48.17
2022-10-09T15:33:05.449Z,48.37
2022-10-09T15:34:05.441Z,48.37
2022-10-09T15:35:05.447Z,48.58
2022-10-09T15:36:05.461Z,48.78
2022-10-09T15:37:05.413Z,48.78
2022-10-09T15:38:05.403Z,48.78
2022-10-09T15:39:07.275Z,49.08
2022-10-09T15:40:05.365Z,49.08
2022-10-09T15:41:05.406Z,49.18
2022-10-09T15:42:05.385Z,49.10
2022-10-09T15:43:05.345Z,49.10
2022-10-09T15:44:05.387Z,49.51
2022-10-09T15:45:05.333Z,49.18
2022-10-09T15:46:05.529Z,49.71
2022-10-09T15:47:05.300Z,49.51
2022-10-09T15:48:10.226Z,49.41
2022-10-09T15:49:05.342Z,49.21
2022-10-09T15:50:05.322Z,49.51
2022-10-09T15:51:05.260Z,49.71